sensor_id;sensor_type;location;lat;lon;timestamp;P1;durP1;ratioP1;P2;durP2;ratioP2
49488;SDS011;35382;51.484;11.476;2024-03-08T00:02:04;42.63;;;24.70;;
49488;SDS011;35382;51.484;11.476;2024-03-08T00:04:29;40.38;;;24.05;;
49488;SDS011;35382;51.484;11.476;2024-03-08T00:06:54;45.55;;;23.55;;
49488;SDS011;35382;51.484;11.476;2024-03-08T00:09:20;45.78;;;23.95;;
49488;SDS011;35382;51.484;11.476;2024-03-08T00:11:45;46.67;;;24.52;;
49488;SDS011;35382;51.484;11.476;2024-03-08T00:14:10;42.88;;;23.50;;
49488;SDS011;35382;51.484;11.476;2024-03-08T00:16:36;47.53;;;24.80;;
49488;SDS011;35382;51.484;11.476;2024-03-08T00:19:01;49.15;;;25.95;;
49488;SDS011;35382;51.484;11.476;2024-03-08T00:21:26;43.33;;;24.27;;
49488;SDS011;35382;51.484;11.476;2024-03-08T00:23:52;44.58;;;24.02;;
49488;SDS011;35382;51.484;11.476;2024-03-08T00:26:18;48.33;;;25.60;;
49488;SDS011;35382;51.484;11.476;2024-03-08T00:28:43;44.13;;;24.73;;
49488;SDS011;35382;51.484;11.476;2024-03-08T00:31:11;45.42;;;24.33;;
49488;SDS011;35382;51.484;11.476;2024-03-08T00:33:36;45.33;;;24.95;;
49488;SDS011;35382;51.484;11.476;2024-03-08T00:36:01;47.83;;;24.70;;
49488;SDS011;35382;51.484;11.476;2024-03-08T00:38:27;43.90;;;24.23;;
49488;SDS011;35382;51.484;11.476;2024-03-08T00:40:52;46.92;;;26.67;;
49488;SDS011;35382;51.484;11.476;2024-03-08T00:43:18;47.25;;;25.50;;
49488;SDS011;35382;51.484;11.476;2024-03-08T00:45:43;48.65;;;26.13;;
49488;SDS011;35382;51.484;11.476;2024-03-08T00:48:08;45.83;;;25.45;;
49488;SDS011;35382;51.484;11.476;2024-03-08T00:50:34;48.72;;;25.67;;
49488;SDS011;35382;51.484;11.476;2024-03-08T00:52:59;45.60;;;25.15;;
49488;SDS011;35382;51.484;11.476;2024-03-08T00:55:24;45.78;;;25.48;;
49488;SDS011;35382;51.484;11.476;2024-03-08T00:57:50;45.65;;;24.65;;
49488;SDS011;35382;51.484;11.476;2024-03-08T01:00:15;48.63;;;25.70;;
49488;SDS011;35382;51.484;11.476;2024-03-08T01:02:41;45.53;;;24.92;;
49488;SDS011;35382;51.484;11.476;2024-03-08T01:05:07;46.80;;;25.08;;
49488;SDS011;35382;51.484;11.476;2024-03-08T01:07:35;43.83;;;23.25;;
49488;SDS011;35382;51.484;11.476;2024-03-08T01:10:02;51.10;;;25.48;;
49488;SDS011;35382;51.484;11.476;2024-03-08T01:12:28;44.00;;;24.27;;
49488;SDS011;35382;51.484;11.476;2024-03-08T01:14:54;51.22;;;25.15;;
49488;SDS011;35382;51.484;11.476;2024-03-08T01:17:19;46.08;;;25.10;;
49488;SDS011;35382;51.484;11.476;2024-03-08T01:19:44;43.13;;;24.55;;
49488;SDS011;35382;51.484;11.476;2024-03-08T01:22:10;45.92;;;24.40;;
49488;SDS011;35382;51.484;11.476;2024-03-08T01:24:36;47.08;;;26.40;;
49488;SDS011;35382;51.484;11.476;2024-03-08T01:27:01;46.05;;;24.83;;
49488;SDS011;35382;51.484;11.476;2024-03-08T01:29:27;47.63;;;26.35;;
49488;SDS011;35382;51.484;11.476;2024-03-08T01:31:52;48.08;;;26.10;;
49488;SDS011;35382;51.484;11.476;2024-03-08T01:34:17;44.40;;;24.80;;
49488;SDS011;35382;51.484;11.476;2024-03-08T01:36:43;47.38;;;24.65;;
49488;SDS011;35382;51.484;11.476;2024-03-08T01:39:08;50.47;;;25.73;;
49488;SDS011;35382;51.484;11.476;2024-03-08T01:41:34;48.00;;;23.95;;
49488;SDS011;35382;51.484;11.476;2024-03-08T01:43:59;44.28;;;24.38;;
49488;SDS011;35382;51.484;11.476;2024-03-08T01:46:24;43.45;;;23.73;;
49488;SDS011;35382;51.484;11.476;2024-03-08T01:48:50;44.28;;;23.65;;
49488;SDS011;35382;51.484;11.476;2024-03-08T01:51:16;44.28;;;24.73;;
49488;SDS011;35382;51.484;11.476;2024-03-08T01:53:42;40.80;;;23.88;;
49488;SDS011;35382;51.484;11.476;2024-03-08T01:56:08;42.85;;;22.95;;
49488;SDS011;35382;51.484;11.476;2024-03-08T01:58:34;47.28;;;24.90;;
49488;SDS011;35382;51.484;11.476;2024-03-08T02:01:00;42.03;;;23.67;;
49488;SDS011;35382;51.484;11.476;2024-03-08T02:03:26;43.63;;;24.08;;
49488;SDS011;35382;51.484;11.476;2024-03-08T02:05:51;40.75;;;24.88;;
49488;SDS011;35382;51.484;11.476;2024-03-08T02:08:18;43.03;;;23.65;;
49488;SDS011;35382;51.484;11.476;2024-03-08T02:13:10;44.78;;;22.27;;
49488;SDS011;35382;51.484;11.476;2024-03-08T02:15:55;48.47;;;26.70;;
49488;SDS011;35382;51.484;11.476;2024-03-08T02:18:22;51.30;;;25.90;;
49488;SDS011;35382;51.484;11.476;2024-03-08T02:20:49;51.05;;;25.88;;
49488;SDS011;35382;51.484;11.476;2024-03-08T02:23:18;51.30;;;26.42;;
49488;SDS011;35382;51.484;11.476;2024-03-08T02:25:44;49.88;;;25.73;;
49488;SDS011;35382;51.484;11.476;2024-03-08T02:28:13;46.33;;;25.00;;
49488;SDS011;35382;51.484;11.476;2024-03-08T02:30:38;53.78;;;26.05;;
49488;SDS011;35382;51.484;11.476;2024-03-08T02:33:04;48.60;;;25.42;;
49488;SDS011;35382;51.484;11.476;2024-03-08T02:35:30;47.08;;;25.05;;
49488;SDS011;35382;51.484;11.476;2024-03-08T02:37:56;47.10;;;25.63;;
49488;SDS011;35382;51.484;11.476;2024-03-08T02:40:21;46.88;;;24.55;;
49488;SDS011;35382;51.484;11.476;2024-03-08T02:42:47;46.17;;;25.40;;
49488;SDS011;35382;51.484;11.476;2024-03-08T02:45:12;42.25;;;24.08;;
49488;SDS011;35382;51.484;11.476;2024-03-08T02:47:38;43.20;;;22.92;;
49488;SDS011;35382;51.484;11.476;2024-03-08T02:50:03;50.50;;;26.08;;
49488;SDS011;35382;51.484;11.476;2024-03-08T02:52:29;46.88;;;25.15;;
49488;SDS011;35382;51.484;11.476;2024-03-08T02:54:54;46.67;;;25.38;;
49488;SDS011;35382;51.484;11.476;2024-03-08T02:57:19;47.75;;;25.52;;
49488;SDS011;35382;51.484;11.476;2024-03-08T02:59:45;44.13;;;24.55;;
49488;SDS011;35382;51.484;11.476;2024-03-08T03:02:10;47.05;;;25.25;;
49488;SDS011;35382;51.484;11.476;2024-03-08T03:04:36;49.70;;;25.52;;
49488;SDS011;35382;51.484;11.476;2024-03-08T03:07:01;52.30;;;27.08;;
49488;SDS011;35382;51.484;11.476;2024-03-08T03:09:26;47.88;;;25.08;;
49488;SDS011;35382;51.484;11.476;2024-03-08T03:11:52;55.60;;;27.58;;
49488;SDS011;35382;51.484;11.476;2024-03-08T03:14:17;52.42;;;26.55;;
49488;SDS011;35382;51.484;11.476;2024-03-08T03:16:42;50.65;;;26.88;;
49488;SDS011;35382;51.484;11.476;2024-03-08T03:19:08;53.08;;;25.95;;
49488;SDS011;35382;51.484;11.476;2024-03-08T03:21:33;51.78;;;26.65;;
49488;SDS011;35382;51.484;11.476;2024-03-08T03:23:58;54.42;;;27.08;;
49488;SDS011;35382;51.484;11.476;2024-03-08T03:26:24;51.75;;;27.38;;
49488;SDS011;35382;51.484;11.476;2024-03-08T03:28:49;58.33;;;28.60;;
49488;SDS011;35382;51.484;11.476;2024-03-08T03:31:14;49.45;;;26.85;;
49488;SDS011;35382;51.484;11.476;2024-03-08T03:33:40;54.25;;;26.75;;
49488;SDS011;35382;51.484;11.476;2024-03-08T03:36:05;53.90;;;26.58;;
49488;SDS011;35382;51.484;11.476;2024-03-08T03:38:31;52.30;;;25.50;;
49488;SDS011;35382;51.484;11.476;2024-03-08T03:40:56;51.55;;;26.65;;
49488;SDS011;35382;51.484;11.476;2024-03-08T03:43:21;48.17;;;25.88;;
49488;SDS011;35382;51.484;11.476;2024-03-08T03:45:47;52.05;;;25.88;;
49488;SDS011;35382;51.484;11.476;2024-03-08T03:48:12;50.13;;;26.25;;
49488;SDS011;35382;51.484;11.476;2024-03-08T03:50:37;50.72;;;25.98;;
49488;SDS011;35382;51.484;11.476;2024-03-08T03:53:03;53.13;;;26.63;;
49488;SDS011;35382;51.484;11.476;2024-03-08T03:55:29;54.42;;;27.50;;
49488;SDS011;35382;51.484;11.476;2024-03-08T03:57:55;50.35;;;25.98;;
49488;SDS011;35382;51.484;11.476;2024-03-08T04:00:20;52.28;;;27.10;;
49488;SDS011;35382;51.484;11.476;2024-03-08T04:02:46;55.00;;;27.45;;
49488;SDS011;35382;51.484;11.476;2024-03-08T04:05:11;49.40;;;24.98;;
49488;SDS011;35382;51.484;11.476;2024-03-08T04:07:37;52.97;;;26.00;;
49488;SDS011;35382;51.484;11.476;2024-03-08T04:10:04;57.20;;;27.20;;
49488;SDS011;35382;51.484;11.476;2024-03-08T04:12:31;49.20;;;25.25;;
49488;SDS011;35382;51.484;11.476;2024-03-08T04:15:00;50.88;;;26.33;;
49488;SDS011;35382;51.484;11.476;2024-03-08T04:17:26;56.45;;;26.63;;
49488;SDS011;35382;51.484;11.476;2024-03-08T04:19:51;53.22;;;25.73;;
49488;SDS011;35382;51.484;11.476;2024-03-08T04:22:17;53.08;;;26.42;;
49488;SDS011;35382;51.484;11.476;2024-03-08T04:24:46;58.20;;;28.05;;
49488;SDS011;35382;51.484;11.476;2024-03-08T04:27:12;52.75;;;26.77;;
49488;SDS011;35382;51.484;11.476;2024-03-08T04:29:38;59.35;;;27.67;;
49488;SDS011;35382;51.484;11.476;2024-03-08T04:32:04;58.83;;;28.58;;
49488;SDS011;35382;51.484;11.476;2024-03-08T04:34:30;50.80;;;26.63;;
49488;SDS011;35382;51.484;11.476;2024-03-08T04:36:59;57.38;;;27.85;;
49488;SDS011;35382;51.484;11.476;2024-03-08T04:39:25;61.42;;;28.75;;
49488;SDS011;35382;51.484;11.476;2024-03-08T04:41:50;57.55;;;26.85;;
49488;SDS011;35382;51.484;11.476;2024-03-08T04:44:16;56.78;;;26.83;;
49488;SDS011;35382;51.484;11.476;2024-03-08T04:46:42;55.55;;;26.88;;
49488;SDS011;35382;51.484;11.476;2024-03-08T04:49:07;51.13;;;26.02;;
49488;SDS011;35382;51.484;11.476;2024-03-08T04:51:33;57.60;;;26.95;;
49488;SDS011;35382;51.484;11.476;2024-03-08T04:53:58;55.53;;;26.80;;
49488;SDS011;35382;51.484;11.476;2024-03-08T04:56:23;56.50;;;27.23;;
49488;SDS011;35382;51.484;11.476;2024-03-08T04:58:49;52.58;;;27.15;;
49488;SDS011;35382;51.484;11.476;2024-03-08T05:01:14;55.20;;;26.23;;
49488;SDS011;35382;51.484;11.476;2024-03-08T05:03:39;57.03;;;27.95;;
49488;SDS011;35382;51.484;11.476;2024-03-08T05:06:05;76.80;;;33.78;;
49488;SDS011;35382;51.484;11.476;2024-03-08T05:08:30;61.67;;;29.13;;
49488;SDS011;35382;51.484;11.476;2024-03-08T05:10:56;60.00;;;27.42;;
49488;SDS011;35382;51.484;11.476;2024-03-08T05:13:22;55.50;;;27.58;;
49488;SDS011;35382;51.484;11.476;2024-03-08T05:15:50;55.38;;;27.48;;
49488;SDS011;35382;51.484;11.476;2024-03-08T05:18:16;58.80;;;28.02;;
49488;SDS011;35382;51.484;11.476;2024-03-08T05:20:41;56.47;;;28.92;;
49488;SDS011;35382;51.484;11.476;2024-03-08T05:23:07;58.33;;;29.25;;
49488;SDS011;35382;51.484;11.476;2024-03-08T05:25:32;64.40;;;29.42;;
49488;SDS011;35382;51.484;11.476;2024-03-08T05:27:57;58.83;;;28.02;;
49488;SDS011;35382;51.484;11.476;2024-03-08T05:30:23;56.10;;;27.38;;
49488;SDS011;35382;51.484;11.476;2024-03-08T05:32:48;54.90;;;27.65;;
49488;SDS011;35382;51.484;11.476;2024-03-08T05:35:14;55.22;;;28.05;;
49488;SDS011;35382;51.484;11.476;2024-03-08T05:37:39;56.67;;;28.08;;
49488;SDS011;35382;51.484;11.476;2024-03-08T05:40:05;56.80;;;28.25;;
49488;SDS011;35382;51.484;11.476;2024-03-08T05:42:31;55.60;;;28.25;;
49488;SDS011;35382;51.484;11.476;2024-03-08T05:44:56;59.60;;;27.63;;
49488;SDS011;35382;51.484;11.476;2024-03-08T05:47:22;55.38;;;27.20;;
49488;SDS011;35382;51.484;11.476;2024-03-08T05:49:47;55.17;;;27.80;;
49488;SDS011;35382;51.484;11.476;2024-03-08T05:52:12;58.58;;;26.98;;
49488;SDS011;35382;51.484;11.476;2024-03-08T05:54:38;58.80;;;28.38;;
49488;SDS011;35382;51.484;11.476;2024-03-08T05:57:03;55.00;;;27.50;;
49488;SDS011;35382;51.484;11.476;2024-03-08T05:59:28;62.10;;;29.08;;
49488;SDS011;35382;51.484;11.476;2024-03-08T06:01:54;59.78;;;26.75;;
49488;SDS011;35382;51.484;11.476;2024-03-08T06:04:19;55.95;;;27.15;;
49488;SDS011;35382;51.484;11.476;2024-03-08T06:06:44;54.38;;;26.17;;
49488;SDS011;35382;51.484;11.476;2024-03-08T06:09:10;55.70;;;27.23;;
49488;SDS011;35382;51.484;11.476;2024-03-08T06:11:35;55.45;;;27.27;;
49488;SDS011;35382;51.484;11.476;2024-03-08T06:14:00;53.92;;;26.35;;
49488;SDS011;35382;51.484;11.476;2024-03-08T06:16:26;56.58;;;26.25;;
49488;SDS011;35382;51.484;11.476;2024-03-08T06:18:52;55.92;;;26.40;;
49488;SDS011;35382;51.484;11.476;2024-03-08T06:21:17;55.00;;;28.55;;
49488;SDS011;35382;51.484;11.476;2024-03-08T06:23:42;53.65;;;27.08;;
49488;SDS011;35382;51.484;11.476;2024-03-08T06:26:08;55.70;;;27.67;;
49488;SDS011;35382;51.484;11.476;2024-03-08T06:28:33;50.78;;;26.60;;
49488;SDS011;35382;51.484;11.476;2024-03-08T06:30:59;57.20;;;27.52;;
49488;SDS011;35382;51.484;11.476;2024-03-08T06:33:25;58.00;;;28.67;;
49488;SDS011;35382;51.484;11.476;2024-03-08T06:35:50;57.13;;;27.13;;
49488;SDS011;35382;51.484;11.476;2024-03-08T06:38:15;70.05;;;33.38;;
49488;SDS011;35382;51.484;11.476;2024-03-08T06:40:41;91.70;;;37.75;;
49488;SDS011;35382;51.484;11.476;2024-03-08T06:43:06;60.70;;;27.73;;
49488;SDS011;35382;51.484;11.476;2024-03-08T06:45:32;52.78;;;26.85;;
49488;SDS011;35382;51.484;11.476;2024-03-08T06:47:57;57.17;;;28.13;;
49488;SDS011;35382;51.484;11.476;2024-03-08T06:50:22;56.70;;;27.95;;
49488;SDS011;35382;51.484;11.476;2024-03-08T06:52:48;50.42;;;26.48;;
49488;SDS011;35382;51.484;11.476;2024-03-08T06:55:13;54.53;;;27.23;;
49488;SDS011;35382;51.484;11.476;2024-03-08T06:57:39;56.90;;;27.27;;
49488;SDS011;35382;51.484;11.476;2024-03-08T07:00:05;53.88;;;26.63;;
49488;SDS011;35382;51.484;11.476;2024-03-08T07:02:31;55.78;;;27.48;;
49488;SDS011;35382;51.484;11.476;2024-03-08T07:04:59;54.55;;;27.65;;
49488;SDS011;35382;51.484;11.476;2024-03-08T07:07:24;57.03;;;28.13;;
49488;SDS011;35382;51.484;11.476;2024-03-08T07:09:50;55.90;;;28.50;;
49488;SDS011;35382;51.484;11.476;2024-03-08T07:12:15;51.67;;;26.58;;
49488;SDS011;35382;51.484;11.476;2024-03-08T07:14:41;53.28;;;26.98;;
49488;SDS011;35382;51.484;11.476;2024-03-08T07:17:07;53.42;;;26.58;;
49488;SDS011;35382;51.484;11.476;2024-03-08T07:19:32;54.22;;;27.10;;
49488;SDS011;35382;51.484;11.476;2024-03-08T07:21:58;52.35;;;27.83;;
49488;SDS011;35382;51.484;11.476;2024-03-08T07:24:23;55.67;;;27.20;;
49488;SDS011;35382;51.484;11.476;2024-03-08T07:26:48;55.45;;;28.30;;
49488;SDS011;35382;51.484;11.476;2024-03-08T07:29:14;52.33;;;27.15;;
49488;SDS011;35382;51.484;11.476;2024-03-08T07:31:39;93.10;;;40.42;;
49488;SDS011;35382;51.484;11.476;2024-03-08T07:34:04;49.08;;;26.13;;
49488;SDS011;35382;51.484;11.476;2024-03-08T07:36:30;53.53;;;29.15;;
49488;SDS011;35382;51.484;11.476;2024-03-08T07:38:55;47.55;;;26.10;;
49488;SDS011;35382;51.484;11.476;2024-03-08T07:41:20;50.88;;;26.60;;
49488;SDS011;35382;51.484;11.476;2024-03-08T07:43:46;51.95;;;25.23;;
49488;SDS011;35382;51.484;11.476;2024-03-08T07:46:11;50.58;;;27.27;;
49488;SDS011;35382;51.484;11.476;2024-03-08T07:48:36;48.78;;;26.33;;
49488;SDS011;35382;51.484;11.476;2024-03-08T07:51:02;48.42;;;27.45;;
49488;SDS011;35382;51.484;11.476;2024-03-08T07:53:27;46.10;;;26.08;;
49488;SDS011;35382;51.484;11.476;2024-03-08T07:55:52;49.40;;;25.17;;
49488;SDS011;35382;51.484;11.476;2024-03-08T07:58:18;51.30;;;25.33;;
49488;SDS011;35382;51.484;11.476;2024-03-08T08:00:43;49.92;;;26.15;;
49488;SDS011;35382;51.484;11.476;2024-03-08T08:03:09;45.72;;;25.48;;
49488;SDS011;35382;51.484;11.476;2024-03-08T08:05:34;44.90;;;25.15;;
49488;SDS011;35382;51.484;11.476;2024-03-08T08:08:00;46.10;;;23.33;;
49488;SDS011;35382;51.484;11.476;2024-03-08T08:10:29;47.65;;;25.65;;
49488;SDS011;35382;51.484;11.476;2024-03-08T08:12:54;42.80;;;24.25;;
49488;SDS011;35382;51.484;11.476;2024-03-08T08:15:19;45.67;;;24.90;;
49488;SDS011;35382;51.484;11.476;2024-03-08T08:17:45;42.97;;;24.60;;
49488;SDS011;35382;51.484;11.476;2024-03-08T08:20:11;41.65;;;22.27;;
49488;SDS011;35382;51.484;11.476;2024-03-08T08:22:37;44.22;;;24.13;;
49488;SDS011;35382;51.484;11.476;2024-03-08T08:25:03;45.70;;;25.05;;
49488;SDS011;35382;51.484;11.476;2024-03-08T08:27:29;48.17;;;26.20;;
49488;SDS011;35382;51.484;11.476;2024-03-08T08:29:54;37.72;;;22.45;;
49488;SDS011;35382;51.484;11.476;2024-03-08T08:32:19;42.72;;;24.15;;
49488;SDS011;35382;51.484;11.476;2024-03-08T08:34:47;40.35;;;23.25;;
49488;SDS011;35382;51.484;11.476;2024-03-08T08:37:12;41.67;;;24.55;;
49488;SDS011;35382;51.484;11.476;2024-03-08T08:39:38;38.28;;;23.45;;
49488;SDS011;35382;51.484;11.476;2024-03-08T08:42:03;43.63;;;24.98;;
49488;SDS011;35382;51.484;11.476;2024-03-08T08:44:29;40.20;;;23.42;;
49488;SDS011;35382;51.484;11.476;2024-03-08T08:46:54;39.65;;;23.60;;
49488;SDS011;35382;51.484;11.476;2024-03-08T08:49:20;40.10;;;22.73;;
49488;SDS011;35382;51.484;11.476;2024-03-08T08:51:48;44.20;;;23.65;;
49488;SDS011;35382;51.484;11.476;2024-03-08T08:54:17;40.63;;;23.30;;
49488;SDS011;35382;51.484;11.476;2024-03-08T08:56:43;38.95;;;21.73;;
49488;SDS011;35382;51.484;11.476;2024-03-08T08:59:09;41.85;;;23.02;;
49488;SDS011;35382;51.484;11.476;2024-03-08T09:01:35;42.47;;;24.05;;
49488;SDS011;35382;51.484;11.476;2024-03-08T09:04:00;40.20;;;23.95;;
49488;SDS011;35382;51.484;11.476;2024-03-08T09:06:26;40.97;;;22.60;;
49488;SDS011;35382;51.484;11.476;2024-03-08T09:08:51;47.08;;;26.15;;
49488;SDS011;35382;51.484;11.476;2024-03-08T09:11:16;42.22;;;23.35;;
49488;SDS011;35382;51.484;11.476;2024-03-08T09:13:44;40.33;;;22.42;;
49488;SDS011;35382;51.484;11.476;2024-03-08T09:16:10;40.95;;;22.90;;
49488;SDS011;35382;51.484;11.476;2024-03-08T09:18:35;40.83;;;23.55;;
49488;SDS011;35382;51.484;11.476;2024-03-08T09:21:00;45.92;;;24.55;;
49488;SDS011;35382;51.484;11.476;2024-03-08T09:23:26;39.95;;;23.08;;
49488;SDS011;35382;51.484;11.476;2024-03-08T09:25:51;42.45;;;24.13;;
49488;SDS011;35382;51.484;11.476;2024-03-08T09:28:16;41.17;;;23.40;;
49488;SDS011;35382;51.484;11.476;2024-03-08T09:30:42;44.97;;;25.75;;
49488;SDS011;35382;51.484;11.476;2024-03-08T09:33:07;43.30;;;25.90;;
49488;SDS011;35382;51.484;11.476;2024-03-08T09:35:32;41.25;;;24.85;;
49488;SDS011;35382;51.484;11.476;2024-03-08T09:37:58;42.88;;;26.02;;
49488;SDS011;35382;51.484;11.476;2024-03-08T09:40:23;40.60;;;25.10;;
49488;SDS011;35382;51.484;11.476;2024-03-08T09:42:49;40.80;;;24.00;;
49488;SDS011;35382;51.484;11.476;2024-03-08T09:45:15;43.72;;;24.73;;
49488;SDS011;35382;51.484;11.476;2024-03-08T09:47:42;39.53;;;22.17;;
49488;SDS011;35382;51.484;11.476;2024-03-08T09:50:08;45.92;;;25.20;;
49488;SDS011;35382;51.484;11.476;2024-03-08T09:52:46;41.75;;;23.35;;
49488;SDS011;35382;51.484;11.476;2024-03-08T09:55:12;39.58;;;24.25;;
49488;SDS011;35382;51.484;11.476;2024-03-08T09:57:38;41.58;;;24.35;;
49488;SDS011;35382;51.484;11.476;2024-03-08T10:00:07;37.17;;;19.55;;
49488;SDS011;35382;51.484;11.476;2024-03-08T10:02:33;53.90;;;28.83;;
49488;SDS011;35382;51.484;11.476;2024-03-08T10:04:59;40.00;;;22.77;;
49488;SDS011;35382;51.484;11.476;2024-03-08T10:07:26;40.03;;;23.67;;
49488;SDS011;35382;51.484;11.476;2024-03-08T10:09:51;39.47;;;23.27;;
49488;SDS011;35382;51.484;11.476;2024-03-08T10:12:17;44.40;;;24.35;;
49488;SDS011;35382;51.484;11.476;2024-03-08T10:14:42;38.55;;;23.23;;
49488;SDS011;35382;51.484;11.476;2024-03-08T10:17:08;43.58;;;24.17;;
49488;SDS011;35382;51.484;11.476;2024-03-08T10:19:33;40.58;;;24.23;;
49488;SDS011;35382;51.484;11.476;2024-03-08T10:21:59;41.45;;;23.80;;
49488;SDS011;35382;51.484;11.476;2024-03-08T10:24:25;38.72;;;23.55;;
49488;SDS011;35382;51.484;11.476;2024-03-08T10:26:55;42.83;;;24.20;;
49488;SDS011;35382;51.484;11.476;2024-03-08T10:29:24;38.03;;;22.73;;
49488;SDS011;35382;51.484;11.476;2024-03-08T10:31:49;37.20;;;23.25;;
49488;SDS011;35382;51.484;11.476;2024-03-08T10:34:14;39.42;;;23.40;;
49488;SDS011;35382;51.484;11.476;2024-03-08T10:36:40;37.40;;;22.35;;
49488;SDS011;35382;51.484;11.476;2024-03-08T10:39:18;42.08;;;24.30;;
49488;SDS011;35382;51.484;11.476;2024-03-08T10:41:48;40.38;;;24.02;;
49488;SDS011;35382;51.484;11.476;2024-03-08T10:49:30;40.35;;;24.65;;
49488;SDS011;35382;51.484;11.476;2024-03-08T10:51:57;38.20;;;23.23;;
49488;SDS011;35382;51.484;11.476;2024-03-08T10:54:23;47.40;;;26.77;;
49488;SDS011;35382;51.484;11.476;2024-03-08T10:56:51;38.22;;;22.33;;
49488;SDS011;35382;51.484;11.476;2024-03-08T10:59:17;36.15;;;23.42;;
49488;SDS011;35382;51.484;11.476;2024-03-08T11:01:44;40.78;;;25.25;;
49488;SDS011;35382;51.484;11.476;2024-03-08T11:04:09;38.10;;;22.73;;
49488;SDS011;35382;51.484;11.476;2024-03-08T11:09:08;40.50;;;22.90;;
49488;SDS011;35382;51.484;11.476;2024-03-08T11:11:52;39.60;;;23.58;;
49488;SDS011;35382;51.484;11.476;2024-03-08T11:17:08;36.65;;;23.38;;
49488;SDS011;35382;51.484;11.476;2024-03-08T11:19:34;38.33;;;22.00;;
49488;SDS011;35382;51.484;11.476;2024-03-08T11:22:00;40.40;;;24.13;;
49488;SDS011;35382;51.484;11.476;2024-03-08T11:24:36;38.58;;;22.73;;
49488;SDS011;35382;51.484;11.476;2024-03-08T11:27:03;36.28;;;21.17;;
49488;SDS011;35382;51.484;11.476;2024-03-08T11:34:52;37.00;;;21.52;;
49488;SDS011;35382;51.484;11.476;2024-03-08T11:37:18;41.42;;;24.05;;
49488;SDS011;35382;51.484;11.476;2024-03-08T11:39:49;41.40;;;23.50;;
49488;SDS011;35382;51.484;11.476;2024-03-08T11:42:15;38.50;;;22.38;;
49488;SDS011;35382;51.484;11.476;2024-03-08T11:44:41;40.60;;;23.63;;
49488;SDS011;35382;51.484;11.476;2024-03-08T11:47:10;37.47;;;21.48;;
49488;SDS011;35382;51.484;11.476;2024-03-08T11:49:36;38.03;;;20.08;;
49488;SDS011;35382;51.484;11.476;2024-03-08T11:52:02;42.00;;;23.00;;
49488;SDS011;35382;51.484;11.476;2024-03-08T11:54:28;36.25;;;21.10;;
49488;SDS011;35382;51.484;11.476;2024-03-08T11:56:54;36.33;;;20.23;;
49488;SDS011;35382;51.484;11.476;2024-03-08T11:59:19;35.60;;;22.23;;
49488;SDS011;35382;51.484;11.476;2024-03-08T12:01:56;38.42;;;21.88;;
49488;SDS011;35382;51.484;11.476;2024-03-08T12:04:26;37.58;;;22.13;;
49488;SDS011;35382;51.484;11.476;2024-03-08T12:06:51;43.10;;;23.23;;
49488;SDS011;35382;51.484;11.476;2024-03-08T12:09:17;38.38;;;23.45;;
49488;SDS011;35382;51.484;11.476;2024-03-08T12:11:42;42.13;;;23.10;;
49488;SDS011;35382;51.484;11.476;2024-03-08T12:14:08;35.92;;;21.05;;
49488;SDS011;35382;51.484;11.476;2024-03-08T12:16:33;37.17;;;22.58;;
49488;SDS011;35382;51.484;11.476;2024-03-08T12:18:59;38.22;;;22.73;;
49488;SDS011;35382;51.484;11.476;2024-03-08T12:21:25;40.25;;;23.35;;
49488;SDS011;35382;51.484;11.476;2024-03-08T12:26:32;36.10;;;22.52;;
49488;SDS011;35382;51.484;11.476;2024-03-08T12:31:43;30.67;;;17.67;;
49488;SDS011;35382;51.484;11.476;2024-03-08T12:34:08;38.10;;;23.38;;
49488;SDS011;35382;51.484;11.476;2024-03-08T12:36:34;37.15;;;22.92;;
49488;SDS011;35382;51.484;11.476;2024-03-08T12:38:59;35.75;;;21.52;;
49488;SDS011;35382;51.484;11.476;2024-03-08T12:41:25;36.75;;;22.27;;
49488;SDS011;35382;51.484;11.476;2024-03-08T12:43:50;31.95;;;17.25;;
49488;SDS011;35382;51.484;11.476;2024-03-08T12:46:19;35.22;;;21.20;;
49488;SDS011;35382;51.484;11.476;2024-03-08T12:48:45;36.35;;;21.13;;
49488;SDS011;35382;51.484;11.476;2024-03-08T12:51:11;31.85;;;19.80;;
49488;SDS011;35382;51.484;11.476;2024-03-08T12:53:36;32.00;;;18.88;;
49488;SDS011;35382;51.484;11.476;2024-03-08T12:56:02;32.53;;;19.30;;
49488;SDS011;35382;51.484;11.476;2024-03-08T12:58:27;33.08;;;19.83;;
49488;SDS011;35382;51.484;11.476;2024-03-08T13:00:53;35.65;;;20.27;;
49488;SDS011;35382;51.484;11.476;2024-03-08T13:03:18;33.60;;;19.15;;
49488;SDS011;35382;51.484;11.476;2024-03-08T13:05:43;26.73;;;16.65;;
49488;SDS011;35382;51.484;11.476;2024-03-08T13:08:09;32.45;;;20.17;;
49488;SDS011;35382;51.484;11.476;2024-03-08T13:10:35;35.65;;;20.92;;
49488;SDS011;35382;51.484;11.476;2024-03-08T13:13:00;33.55;;;19.92;;
49488;SDS011;35382;51.484;11.476;2024-03-08T13:15:25;32.42;;;20.38;;
49488;SDS011;35382;51.484;11.476;2024-03-08T13:17:51;32.35;;;19.42;;
49488;SDS011;35382;51.484;11.476;2024-03-08T13:20:16;35.33;;;20.60;;
49488;SDS011;35382;51.484;11.476;2024-03-08T13:22:41;36.60;;;21.60;;
49488;SDS011;35382;51.484;11.476;2024-03-08T13:25:07;34.35;;;19.83;;
49488;SDS011;35382;51.484;11.476;2024-03-08T13:27:33;30.00;;;18.23;;
49488;SDS011;35382;51.484;11.476;2024-03-08T13:29:58;34.60;;;21.73;;
49488;SDS011;35382;51.484;11.476;2024-03-08T13:32:24;34.60;;;21.50;;
49488;SDS011;35382;51.484;11.476;2024-03-08T13:34:49;34.45;;;20.98;;
49488;SDS011;35382;51.484;11.476;2024-03-08T13:37:14;36.22;;;21.08;;
49488;SDS011;35382;51.484;11.476;2024-03-08T13:39:40;34.35;;;21.45;;
49488;SDS011;35382;51.484;11.476;2024-03-08T13:42:05;39.72;;;22.58;;
49488;SDS011;35382;51.484;11.476;2024-03-08T13:44:32;35.00;;;19.95;;
49488;SDS011;35382;51.484;11.476;2024-03-08T13:46:57;32.42;;;20.38;;
49488;SDS011;35382;51.484;11.476;2024-03-08T13:49:22;34.85;;;22.25;;
49488;SDS011;35382;51.484;11.476;2024-03-08T13:51:50;34.20;;;21.33;;
49488;SDS011;35382;51.484;11.476;2024-03-08T13:54:15;35.45;;;21.95;;
49488;SDS011;35382;51.484;11.476;2024-03-08T13:56:41;34.65;;;20.65;;
49488;SDS011;35382;51.484;11.476;2024-03-08T13:59:06;32.75;;;20.13;;
49488;SDS011;35382;51.484;11.476;2024-03-08T14:01:32;32.72;;;21.00;;
49488;SDS011;35382;51.484;11.476;2024-03-08T14:03:57;34.75;;;20.77;;
49488;SDS011;35382;51.484;11.476;2024-03-08T14:06:22;36.83;;;22.25;;
49488;SDS011;35382;51.484;11.476;2024-03-08T14:08:48;39.97;;;21.90;;
49488;SDS011;35382;51.484;11.476;2024-03-08T14:11:13;36.35;;;22.38;;
49488;SDS011;35382;51.484;11.476;2024-03-08T14:13:45;34.92;;;21.40;;
49488;SDS011;35382;51.484;11.476;2024-03-08T14:16:10;35.30;;;21.38;;
49488;SDS011;35382;51.484;11.476;2024-03-08T14:18:36;34.25;;;21.00;;
49488;SDS011;35382;51.484;11.476;2024-03-08T14:21:02;37.70;;;21.77;;
49488;SDS011;35382;51.484;11.476;2024-03-08T14:23:28;29.73;;;18.55;;
49488;SDS011;35382;51.484;11.476;2024-03-08T14:25:53;32.88;;;20.75;;